sensor_id;sensor_type;location;lat;lon;timestamp;temperature;humidity
68139;DHT22;54940;50.842;4.410;2022-10-16T00:00:57;14.40;99.90
68139;DHT22;54940;50.842;4.410;2022-10-16T00:03:23;14.40;99.90
68139;DHT22;54940;50.842;4.410;2022-10-16T00:05:49;14.30;99.90
68139;DHT22;54940;50.842;4.410;2022-10-16T00:08:15;14.30;99.90
68139;DHT22;54940;50.842;4.410;2022-10-16T00:10:40;14.40;99.90
68139;DHT22;54940;50.842;4.410;2022-10-16T00:13:07;14.40;99.90
68139;DHT22;54940;50.842;4.410;2022-10-16T00:15:35;14.40;99.90
68139;DHT22;54940;50.842;4.410;2022-10-16T00:18:02;14.40;99.90
68139;DHT22;54940;50.842;4.410;2022-10-16T00:20:27;14.40;99.90
68139;DHT22;54940;50.842;4.410;2022-10-16T00:22:53;14.40;99.90
68139;DHT22;54940;50.842;4.410;2022-10-16T00:25:19;14.40;99.90
68139;DHT22;54940;50.842;4.410;2022-10-16T00:27:44;14.40;99.90
68139;DHT22;54940;50.842;4.410;2022-10-16T00:30:10;14.30;99.90
68139;DHT22;54940;50.842;4.410;2022-10-16T00:32:36;14.20;99.90
68139;DHT22;54940;50.842;4.410;2022-10-16T00:35:01;14.20;99.90
68139;DHT22;54940;50.842;4.410;2022-10-16T00:37:29;14.20;99.90
68139;DHT22;54940;50.842;4.410;2022-10-16T00:39:54;14.20;99.90
68139;DHT22;54940;50.842;4.410;2022-10-16T00:42:22;14.20;99.90
68139;DHT22;54940;50.842;4.410;2022-10-16T00:44:56;14.10;99.90
68139;DHT22;54940;50.842;4.410;2022-10-16T00:47:34;14.10;99.90
68139;DHT22;54940;50.842;4.410;2022-10-16T00:50:31;14.10;99.90
68139;DHT22;54940;50.842;4.410;2022-10-16T00:52:59;14.10;99.90
68139;DHT22;54940;50.842;4.410;2022-10-16T00:55:26;14.10;99.90
68139;DHT22;54940;50.842;4.410;2022-10-16T00:57:53;14.00;99.90
68139;DHT22;54940;50.842;4.410;2022-10-16T01:00:24;14.00;99.90
68139;DHT22;54940;50.842;4.410;2022-10-16T01:02:57;13.90;99.90
68139;DHT22;54940;50.842;4.410;2022-10-16T01:05:25;14.00;99.90
68139;DHT22;54940;50.842;4.410;2022-10-16T01:08:15;14.00;99.90
68139;DHT22;54940;50.842;4.410;2022-10-16T01:10:57;14.00;99.90
68139;DHT22;54940;50.842;4.410;2022-10-16T01:13:32;14.00;99.90
68139;DHT22;54940;50.842;4.410;2022-10-16T01:21:35;14.00;99.90
68139;DHT22;54940;50.842;4.410;2022-10-16T01:29:30;14.10;99.90
68139;DHT22;54940;50.842;4.410;2022-10-16T01:32:05;14.00;99.90
68139;DHT22;54940;50.842;4.410;2022-10-16T01:34:53;14.00;99.90
68139;DHT22;54940;50.842;4.410;2022-10-16T01:40:02;14.10;99.90
68139;DHT22;54940;50.842;4.410;2022-10-16T01:42:35;13.90;99.90
68139;DHT22;54940;50.842;4.410;2022-10-16T01:45:02;13.90;99.90
68139;DHT22;54940;50.842;4.410;2022-10-16T01:47:33;13.90;99.90
68139;DHT22;54940;50.842;4.410;2022-10-16T01:50:01;13.90;99.90
68139;DHT22;54940;50.842;4.410;2022-10-16T01:52:29;13.80;99.90
68139;DHT22;54940;50.842;4.410;2022-10-16T01:54:56;13.80;99.90
68139;DHT22;54940;50.842;4.410;2022-10-16T01:57:24;13.90;99.90
68139;DHT22;54940;50.842;4.410;2022-10-16T01:59:54;13.90;99.90
68139;DHT22;54940;50.842;4.410;2022-10-16T02:02:21;13.90;99.90
68139;DHT22;54940;50.842;4.410;2022-10-16T02:04:58;13.90;99.90
68139;DHT22;54940;50.842;4.410;2022-10-16T02:07:26;14.00;99.90
68139;DHT22;54940;50.842;4.410;2022-10-16T02:09:52;13.90;99.90
68139;DHT22;54940;50.842;4.410;2022-10-16T02:12:27;13.90;99.90
68139;DHT22;54940;50.842;4.410;2022-10-16T02:14:54;13.90;99.90
68139;DHT22;54940;50.842;4.410;2022-10-16T02:17:20;13.90;99.90
68139;DHT22;54940;50.842;4.410;2022-10-16T02:19:47;13.80;99.90
68139;DHT22;54940;50.842;4.410;2022-10-16T02:22:30;13.80;99.90
68139;DHT22;54940;50.842;4.410;2022-10-16T02:27:53;13.90;99.90
68139;DHT22;54940;50.842;4.410;2022-10-16T02:30:39;13.90;99.90
68139;DHT22;54940;50.842;4.410;2022-10-16T02:33:10;13.90;99.90
68139;DHT22;54940;50.842;4.410;2022-10-16T02:35:38;13.90;99.90
68139;DHT22;54940;50.842;4.410;2022-10-16T02:38:04;13.90;99.90
68139;DHT22;54940;50.842;4.410;2022-10-16T02:40:30;13.80;99.90
68139;DHT22;54940;50.842;4.410;2022-10-16T02:42:56;13.90;99.90
68139;DHT22;54940;50.842;4.410;2022-10-16T02:45:23;13.90;99.90
68139;DHT22;54940;50.842;4.410;2022-10-16T02:47:49;13.90;99.90
68139;DHT22;54940;50.842;4.410;2022-10-16T02:50:15;13.90;99.90
68139;DHT22;54940;50.842;4.410;2022-10-16T02:52:40;14.00;99.90
68139;DHT22;54940;50.842;4.410;2022-10-16T02:55:06;13.90;99.90
68139;DHT22;54940;50.842;4.410;2022-10-16T02:57:32;13.80;99.90
68139;DHT22;54940;50.842;4.410;2022-10-16T02:59:58;13.80;99.90
68139;DHT22;54940;50.842;4.410;2022-10-16T03:02:23;13.80;99.90
68139;DHT22;54940;50.842;4.410;2022-10-16T03:04:49;13.80;99.90
68139;DHT22;54940;50.842;4.410;2022-10-16T03:07:15;13.80;99.90
68139;DHT22;54940;50.842;4.410;2022-10-16T03:09:40;13.90;99.90
68139;DHT22;54940;50.842;4.410;2022-10-16T03:12:06;13.90;99.90
68139;DHT22;54940;50.842;4.410;2022-10-16T03:14:32;13.80;99.90
68139;DHT22;54940;50.842;4.410;2022-10-16T03:16:58;13.90;99.90
68139;DHT22;54940;50.842;4.410;2022-10-16T03:19:23;13.90;99.90
68139;DHT22;54940;50.842;4.410;2022-10-16T03:21:49;13.80;99.90
68139;DHT22;54940;50.842;4.410;2022-10-16T03:24:15;13.80;99.90
68139;DHT22;54940;50.842;4.410;2022-10-16T03:26:41;13.80;99.90
68139;DHT22;54940;50.842;4.410;2022-10-16T03:29:06;13.80;99.90
68139;DHT22;54940;50.842;4.410;2022-10-16T03:31:32;13.80;99.90
68139;DHT22;54940;50.842;4.410;2022-10-16T03:33:58;13.90;99.90
68139;DHT22;54940;50.842;4.410;2022-10-16T03:36:24;13.90;99.90
68139;DHT22;54940;50.842;4.410;2022-10-16T03:38:49;13.90;99.90
68139;DHT22;54940;50.842;4.410;2022-10-16T03:41:15;13.90;99.90
68139;DHT22;54940;50.842;4.410;2022-10-16T03:43:41;13.80;99.90
68139;DHT22;54940;50.842;4.410;2022-10-16T03:46:07;13.70;99.90
68139;DHT22;54940;50.842;4.410;2022-10-16T03:48:32;13.80;99.90
68139;DHT22;54940;50.842;4.410;2022-10-16T03:50:58;13.80;99.90
68139;DHT22;54940;50.842;4.410;2022-10-16T03:53:24;13.80;99.90
68139;DHT22;54940;50.842;4.410;2022-10-16T03:55:50;13.90;99.90
68139;DHT22;54940;50.842;4.410;2022-10-16T03:58:16;13.80;99.90
68139;DHT22;54940;50.842;4.410;2022-10-16T04:00:43;13.80;99.90
68139;DHT22;54940;50.842;4.410;2022-10-16T04:03:10;13.90;99.90
68139;DHT22;54940;50.842;4.410;2022-10-16T04:05:36;13.90;99.90
68139;DHT22;54940;50.842;4.410;2022-10-16T04:08:02;13.80;99.90
68139;DHT22;54940;50.842;4.410;2022-10-16T04:10:28;13.80;99.90
68139;DHT22;54940;50.842;4.410;2022-10-16T04:12:53;13.80;99.90
68139;DHT22;54940;50.842;4.410;2022-10-16T04:15:21;13.80;99.90
68139;DHT22;54940;50.842;4.410;2022-10-16T04:17:47;13.70;99.90
68139;DHT22;54940;50.842;4.410;2022-10-16T04:20:13;13.80;99.90
68139;DHT22;54940;50.842;4.410;2022-10-16T04:22:38;13.80;99.90
68139;DHT22;54940;50.842;4.410;2022-10-16T04:25:05;13.80;99.90
68139;DHT22;54940;50.842;4.410;2022-10-16T04:27:30;13.90;99.90
68139;DHT22;54940;50.842;4.410;2022-10-16T04:29:57;13.80;99.90
68139;DHT22;54940;50.842;4.410;2022-10-16T04:32:23;13.80;99.90
68139;DHT22;54940;50.842;4.410;2022-10-16T04:34:49;13.80;99.90
68139;DHT22;54940;50.842;4.410;2022-10-16T04:37:14;13.80;99.90
68139;DHT22;54940;50.842;4.410;2022-10-16T04:39:40;13.80;99.90
68139;DHT22;54940;50.842;4.410;2022-10-16T04:42:06;13.80;99.90
68139;DHT22;54940;50.842;4.410;2022-10-16T04:44:31;13.80;99.90
68139;DHT22;54940;50.842;4.410;2022-10-16T04:46:57;13.80;99.90
68139;DHT22;54940;50.842;4.410;2022-10-16T04:49:23;13.80;99.90
68139;DHT22;54940;50.842;4.410;2022-10-16T04:51:48;13.70;99.90
68139;DHT22;54940;50.842;4.410;2022-10-16T04:54:14;13.70;99.90
68139;DHT22;54940;50.842;4.410;2022-10-16T04:56:40;13.70;99.90
68139;DHT22;54940;50.842;4.410;2022-10-16T04:59:15;13.70;99.90
68139;DHT22;54940;50.842;4.410;2022-10-16T05:01:41;13.80;99.90
68139;DHT22;54940;50.842;4.410;2022-10-16T05:04:07;13.80;99.90
68139;DHT22;54940;50.842;4.410;2022-10-16T05:06:32;13.70;99.90
68139;DHT22;54940;50.842;4.410;2022-10-16T05:08:58;13.70;99.90
68139;DHT22;54940;50.842;4.410;2022-10-16T05:11:24;13.60;99.90
68139;DHT22;54940;50.842;4.410;2022-10-16T05:13:49;13.60;99.90
68139;DHT22;54940;50.842;4.410;2022-10-16T05:16:15;13.70;99.90
68139;DHT22;54940;50.842;4.410;2022-10-16T05:18:41;13.70;99.90
68139;DHT22;54940;50.842;4.410;2022-10-16T05:21:06;13.70;99.90
68139;DHT22;54940;50.842;4.410;2022-10-16T05:23:32;13.70;99.90
68139;DHT22;54940;50.842;4.410;2022-10-16T05:25:59;13.70;99.90
68139;DHT22;54940;50.842;4.410;2022-10-16T05:28:25;13.80;99.90
68139;DHT22;54940;50.842;4.410;2022-10-16T05:30:51;13.70;99.90
68139;DHT22;54940;50.842;4.410;2022-10-16T05:33:20;13.60;99.90
68139;DHT22;54940;50.842;4.410;2022-10-16T05:35:46;13.70;99.90
68139;DHT22;54940;50.842;4.410;2022-10-16T05:38:11;13.70;99.90
68139;DHT22;54940;50.842;4.410;2022-10-16T05:40:37;13.70;99.90
68139;DHT22;54940;50.842;4.410;2022-10-16T05:43:03;13.60;99.90
68139;DHT22;54940;50.842;4.410;2022-10-16T05:45:28;13.60;99.90
68139;DHT22;54940;50.842;4.410;2022-10-16T05:47:54;13.60;99.90
68139;DHT22;54940;50.842;4.410;2022-10-16T05:50:20;13.70;99.90
68139;DHT22;54940;50.842;4.410;2022-10-16T05:52:45;13.70;99.90
68139;DHT22;54940;50.842;4.410;2022-10-16T05:55:14;13.60;99.90
68139;DHT22;54940;50.842;4.410;2022-10-16T05:57:40;13.60;99.90
68139;DHT22;54940;50.842;4.410;2022-10-16T06:00:07;13.60;99.90
68139;DHT22;54940;50.842;4.410;2022-10-16T06:02:32;13.60;99.90
68139;DHT22;54940;50.842;4.410;2022-10-16T06:04:58;13.60;99.90
68139;DHT22;54940;50.842;4.410;2022-10-16T06:07:23;13.60;99.90
68139;DHT22;54940;50.842;4.410;2022-10-16T06:09:50;13.70;99.90
68139;DHT22;54940;50.842;4.410;2022-10-16T06:12:16;13.70;99.90
68139;DHT22;54940;50.842;4.410;2022-10-16T06:14:42;13.70;99.90
68139;DHT22;54940;50.842;4.410;2022-10-16T06:17:07;13.70;99.90
68139;DHT22;54940;50.842;4.410;2022-10-16T06:19:33;13.70;99.90
68139;DHT22;54940;50.842;4.410;2022-10-16T06:21:59;13.70;99.90
68139;DHT22;54940;50.842;4.410;2022-10-16T06:24:25;13.60;99.90
68139;DHT22;54940;50.842;4.410;2022-10-16T06:26:51;13.60;99.90
68139;DHT22;54940;50.842;4.410;2022-10-16T06:29:16;13.70;99.90
68139;DHT22;54940;50.842;4.410;2022-10-16T06:31:42;13.70;99.90
68139;DHT22;54940;50.842;4.410;2022-10-16T06:34:09;13.70;99.90
68139;DHT22;54940;50.842;4.410;2022-10-16T06:36:36;13.60;99.90
68139;DHT22;54940;50.842;4.410;2022-10-16T06:39:03;13.70;99.90
68139;DHT22;54940;50.842;4.410;2022-10-16T06:41:28;13.70;99.90
68139;DHT22;54940;50.842;4.410;2022-10-16T06:43:54;13.60;99.90
68139;DHT22;54940;50.842;4.410;2022-10-16T06:46:23;13.60;99.90
68139;DHT22;54940;50.842;4.410;2022-10-16T06:48:49;13.70;99.90
68139;DHT22;54940;50.842;4.410;2022-10-16T06:51:20;13.80;99.90
68139;DHT22;54940;50.842;4.410;2022-10-16T06:53:47;13.80;99.90
68139;DHT22;54940;50.842;4.410;2022-10-16T06:56:19;13.90;99.90
68139;DHT22;54940;50.842;4.410;2022-10-16T06:58:44;13.90;99.90
68139;DHT22;54940;50.842;4.410;2022-10-16T07:01:11;14.00;99.90
68139;DHT22;54940;50.842;4.410;2022-10-16T07:03:39;14.10;99.90
68139;DHT22;54940;50.842;4.410;2022-10-16T07:06:06;14.10;99.90
68139;DHT22;54940;50.842;4.410;2022-10-16T07:08:37;14.20;99.90
68139;DHT22;54940;50.842;4.410;2022-10-16T07:11:05;14.10;99.90
68139;DHT22;54940;50.842;4.410;2022-10-16T07:13:34;14.20;99.90
68139;DHT22;54940;50.842;4.410;2022-10-16T07:16:07;14.30;99.90
68139;DHT22;54940;50.842;4.410;2022-10-16T07:18:33;14.30;99.90
68139;DHT22;54940;50.842;4.410;2022-10-16T07:21:10;14.40;99.90
68139;DHT22;54940;50.842;4.410;2022-10-16T07:23:37;14.40;99.90
68139;DHT22;54940;50.842;4.410;2022-10-16T07:26:04;14.30;99.90
68139;DHT22;54940;50.842;4.410;2022-10-16T07:28:30;14.30;99.90
68139;DHT22;54940;50.842;4.410;2022-10-16T07:31:03;14.30;99.90
68139;DHT22;54940;50.842;4.410;2022-10-16T07:33:30;14.30;99.90
68139;DHT22;54940;50.842;4.410;2022-10-16T07:35:56;14.20;99.90
68139;DHT22;54940;50.842;4.410;2022-10-16T07:38:22;14.30;99.90
68139;DHT22;54940;50.842;4.410;2022-10-16T07:40:54;14.40;99.90
68139;DHT22;54940;50.842;4.410;2022-10-16T07:43:20;14.40;99.90
68139;DHT22;54940;50.842;4.410;2022-10-16T07:45:50;14.40;99.90
68139;DHT22;54940;50.842;4.410;2022-10-16T07:48:16;14.40;99.90
68139;DHT22;54940;50.842;4.410;2022-10-16T07:50:43;14.30;99.90
68139;DHT22;54940;50.842;4.410;2022-10-16T07:53:09;14.40;99.90
68139;DHT22;54940;50.842;4.410;2022-10-16T07:55:35;14.40;99.90
68139;DHT22;54940;50.842;4.410;2022-10-16T07:58:01;14.40;99.90
68139;DHT22;54940;50.842;4.410;2022-10-16T08:00:27;14.50;99.90
68139;DHT22;54940;50.842;4.410;2022-10-16T08:02:52;14.40;99.90
68139;DHT22;54940;50.842;4.410;2022-10-16T08:05:18;14.40;99.90
68139;DHT22;54940;50.842;4.410;2022-10-16T08:07:48;14.50;99.90
68139;DHT22;54940;50.842;4.410;2022-10-16T08:10:17;14.50;99.90
68139;DHT22;54940;50.842;4.410;2022-10-16T08:12:43;14.60;99.90
68139;DHT22;54940;50.842;4.410;2022-10-16T08:15:09;14.70;99.90
68139;DHT22;54940;50.842;4.410;2022-10-16T08:17:35;14.80;99.90
68139;DHT22;54940;50.842;4.410;2022-10-16T08:20:01;14.70;99.90
68139;DHT22;54940;50.842;4.410;2022-10-16T08:22:27;14.80;99.90
68139;DHT22;54940;50.842;4.410;2022-10-16T08:24:53;14.80;99.90
68139;DHT22;54940;50.842;4.410;2022-10-16T08:27:18;14.80;99.90
68139;DHT22;54940;50.842;4.410;2022-10-16T08:29:44;14.80;99.90
68139;DHT22;54940;50.842;4.410;2022-10-16T08:32:10;14.90;99.90
68139;DHT22;54940;50.842;4.410;2022-10-16T08:34:35;14.80;99.90
68139;DHT22;54940;50.842;4.410;2022-10-16T08:37:01;14.80;99.90
68139;DHT22;54940;50.842;4.410;2022-10-16T08:39:27;14.80;99.90
68139;DHT22;54940;50.842;4.410;2022-10-16T08:47:56;15.00;99.90
68139;DHT22;54940;50.842;4.410;2022-10-16T08:50:30;15.00;99.90
68139;DHT22;54940;50.842;4.410;2022-10-16T08:52:57;15.10;99.90
68139;DHT22;54940;50.842;4.410;2022-10-16T08:58:05;14.90;99.90
68139;DHT22;54940;50.842;4.410;2022-10-16T09:00:34;15.10;99.90
68139;DHT22;54940;50.842;4.410;2022-10-16T09:06:04;15.20;99.90
68139;DHT22;54940;50.842;4.410;2022-10-16T09:11:17;15.30;99.90
68139;DHT22;54940;50.842;4.410;2022-10-16T09:17:34;15.30;99.90
68139;DHT22;54940;50.842;4.410;2022-10-16T09:22:54;15.40;99.90
68139;DHT22;54940;50.842;4.410;2022-10-16T09:25:23;15.40;99.90
68139;DHT22;54940;50.842;4.410;2022-10-16T09:27:52;15.40;99.90
68139;DHT22;54940;50.842;4.410;2022-10-16T09:30:20;15.50;99.90
68139;DHT22;54940;50.842;4.410;2022-10-16T09:32:50;15.60;99.90
68139;DHT22;54940;50.842;4.410;2022-10-16T09:35:30;15.70;99.90
68139;DHT22;54940;50.842;4.410;2022-10-16T09:37:56;15.60;99.90
68139;DHT22;54940;50.842;4.410;2022-10-16T09:40:30;15.70;99.90
68139;DHT22;54940;50.842;4.410;2022-10-16T09:46:06;15.70;99.90
68139;DHT22;54940;50.842;4.410;2022-10-16T09:48:38;15.70;99.90
68139;DHT22;54940;50.842;4.410;2022-10-16T09:51:13;15.80;99.90
68139;DHT22;54940;50.842;4.410;2022-10-16T09:53:43;15.80;99.90
68139;DHT22;54940;50.842;4.410;2022-10-16T09:56:11;15.90;99.90
68139;DHT22;54940;50.842;4.410;2022-10-16T09:58:42;16.00;99.90
68139;DHT22;54940;50.842;4.410;2022-10-16T10:01:14;16.10;99.90
68139;DHT22;54940;50.842;4.410;2022-10-16T10:03:43;16.10;99.90
68139;DHT22;54940;50.842;4.410;2022-10-16T10:06:27;16.10;99.90
68139;DHT22;54940;50.842;4.410;2022-10-16T10:08:59;16.10;99.90
68139;DHT22;54940;50.842;4.410;2022-10-16T10:14:17;16.30;99.90
68139;DHT22;54940;50.842;4.410;2022-10-16T10:16:43;16.30;99.90
68139;DHT22;54940;50.842;4.410;2022-10-16T10:19:18;16.30;99.90
68139;DHT22;54940;50.842;4.410;2022-10-16T10:21:44;16.30;99.90
68139;DHT22;54940;50.842;4.410;2022-10-16T10:24:15;16.30;99.90
68139;DHT22;54940;50.842;4.410;2022-10-16T10:27:06;16.40;99.90
68139;DHT22;54940;50.842;4.410;2022-10-16T10:43:18;16.80;99.90
68139;DHT22;54940;50.842;4.410;2022-10-16T10:45:47;16.90;99.90
68139;DHT22;54940;50.842;4.410;2022-10-16T10:50:58;16.70;99.90
68139;DHT22;54940;50.842;4.410;2022-10-16T10:59:16;17.00;99.90
68139;DHT22;54940;50.842;4.410;2022-10-16T11:04:49;17.20;99.90
68139;DHT22;54940;50.842;4.410;2022-10-16T11:07:48;17.20;99.90
68139;DHT22;54940;50.842;4.410;2022-10-16T11:10:16;17.40;99.90
68139;DHT22;54940;50.842;4.410;2022-10-16T11:12:51;17.60;99.90
68139;DHT22;54940;50.842;4.410;2022-10-16T11:15:29;17.60;99.90
68139;DHT22;54940;50.842;4.410;2022-10-16T11:18:06;17.80;99.90
68139;DHT22;54940;50.842;4.410;2022-10-16T11:20:37;18.00;99.90
68139;DHT22;54940;50.842;4.410;2022-10-16T11:23:14;18.20;99.90
68139;DHT22;54940;50.842;4.410;2022-10-16T11:25:41;18.40;99.90
68139;DHT22;54940;50.842;4.410;2022-10-16T11:28:18;18.50;99.90
68139;DHT22;54940;50.842;4.410;2022-10-16T11:30:55;18.80;99.90
68139;DHT22;54940;50.842;4.410;2022-10-16T11:33:27;18.60;99.90
68139;DHT22;54940;50.842;4.410;2022-10-16T11:36:04;18.50;99.90
68139;DHT22;54940;50.842;4.410;2022-10-16T11:43:43;19.20;99.90
68139;DHT22;54940;50.842;4.410;2022-10-16T11:46:20;19.30;99.90
68139;DHT22;54940;50.842;4.410;2022-10-16T11:49:13;19.50;99.90
68139;DHT22;54940;50.842;4.410;2022-10-16T11:52:20;19.60;99.90
68139;DHT22;54940;50.842;4.410;2022-10-16T11:54:52;19.40;99.90
68139;DHT22;54940;50.842;4.410;2022-10-16T11:57:31;19.20;99.90
68139;DHT22;54940;50.842;4.410;2022-10-16T11:59:59;18.90;99.90
68139;DHT22;54940;50.842;4.410;2022-10-16T12:02:36;18.90;99.90
68139;DHT22;54940;50.842;4.410;2022-10-16T12:05:22;18.80;99.90
68139;DHT22;54940;50.842;4.410;2022-10-16T12:08:12;18.60;99.90
68139;DHT22;54940;50.842;4.410;2022-10-16T12:10:41;18.70;99.90
68139;DHT22;54940;50.842;4.410;2022-10-16T12:13:33;18.80;99.90
68139;DHT22;54940;50.842;4.410;2022-10-16T12:18:37;19.00;99.90
68139;DHT22;54940;50.842;4.410;2022-10-16T12:21:03;19.00;99.90
68139;DHT22;54940;50.842;4.410;2022-10-16T12:23:37;19.00;99.90
68139;DHT22;54940;50.842;4.410;2022-10-16T12:26:03;18.90;99.90
68139;DHT22;54940;50.842;4.410;2022-10-16T12:28:33;18.80;99.90
68139;DHT22;54940;50.842;4.410;2022-10-16T12:31:04;18.80;99.90
68139;DHT22;54940;50.842;4.410;2022-10-16T12:33:36;18.90;99.90
68139;DHT22;54940;50.842;4.410;2022-10-16T12:36:15;19.00;99.90
68139;DHT22;54940;50.842;4.410;2022-10-16T12:38:50;19.10;99.90
68139;DHT22;54940;50.842;4.410;2022-10-16T12:41:35;19.00;99.90
68139;DHT22;54940;50.842;4.410;2022-10-16T12:44:05;19.00;99.90
68139;DHT22;54940;50.842;4.410;2022-10-16T12:49:29;18.90;99.90
68139;DHT22;54940;50.842;4.410;2022-10-16T12:51:55;18.70;99.90
68139;DHT22;54940;50.842;4.410;2022-10-16T12:54:36;18.50;99.90
68139;DHT22;54940;50.842;4.410;2022-10-16T12:59:50;18.50;99.90
68139;DHT22;54940;50.842;4.410;2022-10-16T13:07:48;18.60;99.90
68139;DHT22;54940;50.842;4.410;2022-10-16T13:16:08;18.80;99.90
68139;DHT22;54940;50.842;4.410;2022-10-16T13:21:41;18.90;99.90
68139;DHT22;54940;50.842;4.410;2022-10-16T13:24:38;19.00;99.90
68139;DHT22;54940;50.842;4.410;2022-10-16T13:27:09;18.90;99.90
68139;DHT22;54940;50.842;4.410;2022-10-16T13:29:38;18.90;99.90
68139;DHT22;54940;50.842;4.410;2022-10-16T13:32:11;19.00;99.90
68139;DHT22;54940;50.842;4.410;2022-10-16T13:34:48;19.10;99.90
68139;DHT22;54940;50.842;4.410;2022-10-16T13:37:19;19.00;99.90
68139;DHT22;54940;50.842;4.410;2022-10-16T13:39:45;19.10;99.90
68139;DHT22;54940;50.842;4.410;2022-10-16T13:42:13;19.20;99.90
68139;DHT22;54940;50.842;4.410;2022-10-16T13:44:43;19.10;99.90
68139;DHT22;54940;50.842;4.410;2022-10-16T13:47:18;19.10;99.90
68139;DHT22;54940;50.842;4.410;2022-10-16T13:49:44;19.00;99.90
68139;DHT22;54940;50.842;4.410;2022-10-16T13:52:18;19.00;99.90
68139;DHT22;54940;50.842;4.410;2022-10-16T13:54:44;19.00;99.90
68139;DHT22;54940;50.842;4.410;2022-10-16T13:57:17;18.90;99.90
68139;DHT22;54940;50.842;4.410;2022-10-16T13:59:42;19.00;99.90
68139;DHT22;54940;50.842;4.410;2022-10-16T14:02:29;19.00;99.90
68139;DHT22;54940;50.842;4.410;2022-10-16T14:04:57;19.00;99.90
68139;DHT22;54940;50.842;4.410;2022-10-16T14:07:29;19.10;99.90
68139;DHT22;54940;50.842;4.410;2022-10-16T14:10:02;19.20;99.90
68139;DHT22;54940;50.842;4.410;2022-10-16T14:12:28;19.20;99.90
68139;DHT22;54940;50.842;4.410;2022-10-16T14:14:55;19.10;99.90
68139;DHT22;54940;50.842;4.410;2022-10-16T14:17:28;19.00;99.90
68139;DHT22;54940;50.842;4.410;2022-10-16T14:19:57;19.00;99.90
68139;DHT22;54940;50.842;4.410;2022-10-16T14:22:36;18.90;99.90
68139;DHT22;54940;50.842;4.410;2022-10-16T14:25:29;18.90;99.90
68139;DHT22;54940;50.842;4.410;2022-10-16T14:30:27;18.80;99.90
68139;DHT22;54940;50.842;4.410;2022-10-16T14:32:56;18.90;99.90
68139;DHT22;54940;50.842;4.410;2022-10-16T14:35:33;18.90;99.90
68139;DHT22;54940;50.842;4.410;2022-10-16T14:38:01;18.90;99.90
68139;DHT22;54940;50.842;4.410;2022-10-16T14:40:30;19.00;99.90
68139;DHT22;54940;50.842;4.410;2022-10-16T14:42:56;19.10;99.90
68139;DHT22;54940;50.842;4.410;2022-10-16T14:45:25;19.10;99.90
68139;DHT22;54940;50.842;4.410;2022-10-16T14:48:00;19.00;99.90
68139;DHT22;54940;50.842;4.410;2022-10-16T14:50:27;19.00;99.90
68139;DHT22;54940;50.842;4.410;2022-10-16T14:52:53;18.90;99.90
68139;DHT22;54940;50.842;4.410;2022-10-16T14:55:19;19.00;99.90
68139;DHT22;54940;50.842;4.410;2022-10-16T14:57:45;18.90;99.90
68139;DHT22;54940;50.842;4.410;2022-10-16T15:02:42;18.80;99.90
68139;DHT22;54940;50.842;4.410;2022-10-16T15:05:18;18.80;99.90
68139;DHT22;54940;50.842;4.410;2022-10-16T15:07:44;18.70;99.90
68139;DHT22;54940;50.842;4.410;2022-10-16T15:10:12;18.80;99.90
68139;DHT22;54940;50.842;4.410;2022-10-16T15:12:38;18.70;99.90
68139;DHT22;54940;50.842;4.410;2022-10-16T15:17:49;18.80;99.90
68139;DHT22;54940;50.842;4.410;2022-10-16T15:20:18;18.80;99.90
68139;DHT22;54940;50.842;4.410;2022-10-16T15:22:43;18.80;99.90
68139;DHT22;54940;50.842;4.410;2022-10-16T15:27:45;18.70;99.90
68139;DHT22;54940;50.842;4.410;2022-10-16T15:30:11;18.60;99.90
68139;DHT22;54940;50.842;4.410;2022-10-16T15:32:36;18.60;99.90
68139;DHT22;54940;50.842;4.410;2022-10-16T15:35:02;18.60;99.90
68139;DHT22;54940;50.842;4.410;2022-10-16T15:37:28;18.50;99.90
68139;DHT22;54940;50.842;4.410;2022-10-16T15:39:53;18.50;99.90
68139;DHT22;54940;50.842;4.410;2022-10-16T15:42:19;18.40;99.90
68139;DHT22;54940;50.842;4.410;2022-10-16T15:44:45;18.50;99.90
68139;DHT22;54940;50.842;4.410;2022-10-16T15:47:10;18.40;99.90
68139;DHT22;54940;50.842;4.410;2022-10-16T15:49:36;18.40;99.90
68139;DHT22;54940;50.842;4.410;2022-10-16T15:52:01;18.40;99.90
68139;DHT22;54940;50.842;4.410;2022-10-16T15:54:28;18.40;99.90
68139;DHT22;54940;50.842;4.410;2022-10-16T15:56:54;18.40;99.90
68139;DHT22;54940;50.842;4.410;2022-10-16T15:59:19;18.40;99.90
68139;DHT22;54940;50.842;4.410;2022-10-16T16:01:45;18.30;99.90
68139;DHT22;54940;50.842;4.410;2022-10-16T16:04:10;18.30;99.90
68139;DHT22;54940;50.842;4.410;2022-10-16T16:06:37;18.20;99.90
68139;DHT22;54940;50.842;4.410;2022-10-16T16:09:04;18.20;99.90
68139;DHT22;54940;50.842;4.410;2022-10-16T16:11:30;18.20;99.90
68139;DHT22;54940;50.842;4.410;2022-10-16T16:13:57;18.20;99.90
68139;DHT22;54940;50.842;4.410;2022-10-16T16:16:23;18.10;99.90
68139;DHT22;54940;50.842;4.410;2022-10-16T16:18:52;18.00;99.90
68139;DHT22;54940;50.842;4.410;2022-10-16T16:21:18;18.00;99.90
68139;DHT22;54940;50.842;4.410;2022-10-16T16:23:43;18.00;99.90
68139;DHT22;54940;50.842;4.410;2022-10-16T16:26:15;18.00;99.90
68139;DHT22;54940;50.842;4.410;2022-10-16T16:28:47;18.00;99.90
68139;DHT22;54940;50.842;4.410;2022-10-16T16:31:12;17.90;99.90
68139;DHT22;54940;50.842;4.410;2022-10-16T16:33:38;17.90;99.90
68139;DHT22;54940;50.842;4.410;2022-10-16T16:36:06;17.90;99.90
68139;DHT22;54940;50.842;4.410;2022-10-16T16:38:33;17.80;99.90
68139;DHT22;54940;50.842;4.410;2022-10-16T16:40:58;17.80;99.90
68139;DHT22;54940;50.842;4.410;2022-10-16T16:43:25;17.80;99.90
68139;DHT22;54940;50.842;4.410;2022-10-16T16:45:51;17.80;99.90
68139;DHT22;54940;50.842;4.410;2022-10-16T16:48:17;17.70;99.90
68139;DHT22;54940;50.842;4.410;2022-10-16T16:50:43;17.70;99.90
68139;DHT22;54940;50.842;4.410;2022-10-16T16:53:08;17.70;99.90
68139;DHT22;54940;50.842;4.410;2022-10-16T16:55:35;17.70;99.90
68139;DHT22;54940;50.842;4.410;2022-10-16T16:58:01;17.60;99.90
68139;DHT22;54940;50.842;4.410;2022-10-16T17:00:28;17.60;99.90
68139;DHT22;54940;50.842;4.410;2022-10-16T17:02:54;17.60;99.90
68139;DHT22;54940;50.842;4.410;2022-10-16T17:05:20;17.60;99.90
68139;DHT22;54940;50.842;4.410;2022-10-16T17:07:45;17.50;99.90
68139;DHT22;54940;50.842;4.410;2022-10-16T17:10:11;17.50;99.90
68139;DHT22;54940;50.842;4.410;2022-10-16T17:12:36;17.50;99.90
68139;DHT22;54940;50.842;4.410;2022-10-16T17:15:02;17.60;99.90
68139;DHT22;54940;50.842;4.410;2022-10-16T17:17:28;17.50;99.90
68139;DHT22;54940;50.842;4.410;2022-10-16T17:19:54;17.50;99.90
68139;DHT22;54940;50.842;4.410;2022-10-16T17:22:19;17.50;99.90
68139;DHT22;54940;50.842;4.410;2022-10-16T17:24:48;17.50;99.90
68139;DHT22;54940;50.842;4.410;2022-10-16T17:27:15;17.50;99.90